Messwerte Evansville

Temperatur

Temperatur
°C
1574380800 19.00 19.00 12
1574384400 20.00 20.00 12
1574388000 21.00 21.00 12
1574391600 22.00 22.00 12
1574395200 23.00 23.00 12
1574398800 0.00 0.00
1574402400 1.00 1.00 9
1574406000 2.00 2.00 8
1574409600 3.00 3.00 7
1574413200 4.00 4.00
1574416800 5.00 5.00 6
1574420400 6.00 6.00 6
1574424000 7.00 7.00 4
1574427600 8.00 8.00 5
1574431200 9.00 9.00 5
1574434800 10.00 10.00 5
1574438400 11.00 11.00 6
1574442000 12.00 12.00 6
1574445600 13.00 13.00 7
1574449200 14.00 14.00 5
1574452800 15.00 15.00 7
1574456400 16.00 16.00 6
1574460000 17.00 17.00 6
1574463600 18.00 18.00 4

Aktuellste Messwerte

Wettercharakter
Wetter: klar
Temperatur
4 °C
Feuchtigkeit
75 %
Wind
5 km/hWindrichtung: Nord
Luftdruck
1019 hPa
Messzeit: 22. November 2019, 19.00Datenquelle: METAR

Weitere Messstationen in der Nähe

Messstation Temperatur Entfernung
Henderson City 4 °C 29 km
Owensboro 6 °C 47 km
Carmi 0 °C 52 km
Huntingburg 4 °C 55 km
Mount Carmel 3 °C 65 km
Lawrenceville 3 °C 79 km
Fairfield 2 °C 85 km

Wind

Windrichtung Böen Mittelwind
° km/h km/h
1574380800 19.00 18.00 - 19.00 210° 25
1574384400 20.00 19.00 - 20.00 220° 25
1574388000 21.00 20.00 - 21.00 220° 25
1574391600 22.00 21.00 - 22.00 220° 20
1574395200 23.00 22.00 - 23.00 220° 15
1574398800 0.00 23.00 - 0.00
1574402400 1.00 0.00 - 1.00 340° 30 20
1574406000 2.00 1.00 - 2.00 350° 40 20
1574409600 3.00 2.00 - 3.00 340° 30 15
1574413200 4.00 3.00 - 4.00
1574416800 5.00 4.00 - 5.00 350° 10
1574420400 6.00 5.00 - 6.00 340° 20
1574424000 7.00 6.00 - 7.00 10° 35 15
1574427600 8.00 7.00 - 8.00 10° 10
1574431200 9.00 8.00 - 9.00 20° 20
1574434800 10.00 9.00 - 10.00 360° 20
1574438400 11.00 10.00 - 11.00 30° 30 20
1574442000 12.00 11.00 - 12.00 20° 20
1574445600 13.00 12.00 - 13.00 20° 15
1574449200 14.00 13.00 - 14.00 10° 15
1574452800 15.00 14.00 - 15.00 360° 15
1574456400 16.00 15.00 - 16.00 20° 15
1574460000 17.00 16.00 - 17.00 30° 15
1574463600 18.00 17.00 - 18.00 20° 10

Ihre Wetterstation

Fehlt Ihre Wetterstation auf unserem Portal?

Schreiben Sie an network@meteonews.ch

Klima

Wann ist es am wärmsten? Wann regnet es am wenigsten? Unsere Klimadaten geben Auskunft.